Wetterdaten: Woche 31.03.03 - 06.04.03 (KW14)
Datum Zeit Temperatur Luftfeuchte Luftdruck Regenmenge Wind Richtung Taupunkt Windchill
31.03.2003 00:00 10.2 C 90 % 1017.8 hPa 2.7 l/m 0.0 km/h (0 Bft) N 8.6 C 10.2 C
31.03.2003 01:00 10.0 C 99 % 1018.3 hPa 3.6 l/m 0.0 km/h (0 Bft) N 9.9 C 10.0 C
31.03.2003 02:00 9.6 C 100 % 1018.3 hPa 0.0 l/m 0.0 km/h (0 Bft) N 9.6 C 9.6 C
31.03.2003 03:00 9.3 C 100 % 1018.3 hPa 0.0 l/m 0.0 km/h (0 Bft) N 9.3 C 9.3 C
31.03.2003 04:00 9.3 C 100 % 1018.3 hPa 0.0 l/m 0.0 km/h (0 Bft) N 9.3 C 9.3 C
31.03.2003 05:00 9.3 C 100 % 1018.3 hPa 0.0 l/m 0.0 km/h (0 Bft) N 9.3 C 9.3 C
31.03.2003 06:00 9.2 C 100 % 1018.4 hPa 0.0 l/m 0.0 km/h (0 Bft) N 9.2 C 9.2 C
31.03.2003 07:00 9.2 C 100 % 1019.4 hPa 0.0 l/m 0.0 km/h (0 Bft) N 9.2 C 9.2 C
31.03.2003 08:00 9.4 C 100 % 1020.0 hPa 0.0 l/m 0.0 km/h (0 Bft) N 9.4 C 9.4 C
31.03.2003 09:00 9.5 C 98 % 1020.5 hPa 0.6 l/m 0.0 km/h (0 Bft) N 9.2 C 9.5 C
31.03.2003 10:00 9.4 C 96 % 1021.5 hPa 0.0 l/m 0.0 km/h (0 Bft) N 8.8 C 9.4 C
31.03.2003 11:00 10.1 C 93 % 1021.9 hPa 0.0 l/m 0.0 km/h (0 Bft) N 9.0 C 10.1 C
31.03.2003 12:00 12.0 C 76 % 1022.5 hPa 0.0 l/m 0.0 km/h (0 Bft) N 7.8 C 12.0 C
31.03.2003 13:00 14.0 C 64 % 1022.5 hPa 0.0 l/m 11.1 km/h (2 Bft) O-SO 7.3 C 14.0 C
31.03.2003 14:00 15.0 C 61 % 1022.5 hPa 0.0 l/m 21.4 km/h (4 Bft) SO 7.5 C 15.0 C
31.03.2003 15:00 14.4 C 61 % 1022.5 hPa 0.0 l/m 16.7 km/h (3 Bft) SO 6.9 C 14.4 C
31.03.2003 16:00 14.7 C 60 % 1022.5 hPa 0.0 l/m 15.7 km/h (3 Bft) SO 7.1 C 14.7 C
31.03.2003 17:00 14.1 C 62 % 1022.5 hPa 0.0 l/m 7.9 km/h (2 Bft) O-SO 6.9 C 14.1 C
31.03.2003 18:00 13.5 C 61 % 1022.5 hPa 0.0 l/m 8.0 km/h (2 Bft) O-SO 6.1 C 13.5 C
31.03.2003 19:00 11.7 C 65 % 1022.9 hPa 0.0 l/m 2.3 km/h (1 Bft) O-SO 5.3 C 11.7 C
31.03.2003 20:00 9.7 C 74 % 1023.5 hPa 0.0 l/m 0.8 km/h (0 Bft) O 5.4 C 9.7 C
31.03.2003 21:00 8.0 C 80 % 1023.7 hPa 0.0 l/m 3.3 km/h (1 Bft) O 4.8 C 7.6 C
31.03.2003 22:00 6.6 C 86 % 1024.6 hPa 0.0 l/m 0.2 km/h (0 Bft) O-SO 4.4 C 6.6 C
31.03.2003 23:00 5.9 C 85 % 1024.6 hPa 0.0 l/m 0.4 km/h (0 Bft) O-SO 3.6 C 5.9 C
01.04.2003 00:00 6.0 C 77 % 1024.6 hPa 0.0 l/m 0.0 km/h (0 Bft) N 2.3 C 6.0 C
01.04.2003 01:00 4.4 C 83 % 1024.6 hPa 0.0 l/m 0.0 km/h (0 Bft) N 1.8 C 4.4 C
01.04.2003 02:00 3.1 C 85 % 1024.6 hPa 0.0 l/m 0.0 km/h (0 Bft) N 0.8 C 3.1 C
01.04.2003 03:00 2.3 C 85 % 1024.6 hPa 0.0 l/m 0.0 km/h (0 Bft) N 0.1 C 2.3 C
01.04.2003 04:00 1.4 C 89 % 1024.5 hPa 0.0 l/m 0.0 km/h (0 Bft) N -0.2 C 1.4 C
01.04.2003 05:00 0.5 C 94 % 1024.5 hPa 0.0 l/m 0.0 km/h (0 Bft) N -0.4 C 0.5 C
01.04.2003 06:00 -0.0 C 98 % 1023.6 hPa 0.0 l/m 0.0 km/h (0 Bft) N -0.3 C -0.0 C
01.04.2003 07:00 -0.1 C 97 % 1023.5 hPa 0.0 l/m 0.0 km/h (0 Bft) N -0.5 C -0.1 C
01.04.2003 08:00 1.3 C 90 % 1024.4 hPa 0.0 l/m 0.0 km/h (0 Bft) N -0.1 C 1.3 C
01.04.2003 09:00 3.5 C 79 % 1024.6 hPa 0.0 l/m 0.0 km/h (0 Bft) N 0.1 C 3.5 C
01.04.2003 10:00 6.5 C 66 % 1023.9 hPa 0.0 l/m 0.0 km/h (0 Bft) N 0.5 C 6.5 C
01.04.2003 11:00 9.7 C 55 % 1023.5 hPa 0.0 l/m 0.9 km/h (0 Bft) S-SO 1.2 C 9.7 C
01.04.2003 12:00 12.9 C 51 % 1022.9 hPa 0.0 l/m 14.9 km/h (3 Bft) SO 3.0 C 12.9 C
01.04.2003 13:00 15.5 C 45 % 1021.6 hPa 0.0 l/m 9.9 km/h (2 Bft) W-NW 3.7 C 15.5 C
01.04.2003 14:00 16.7 C 42 % 1020.3 hPa 0.0 l/m 15.2 km/h (3 Bft) NW 3.8 C 16.7 C
01.04.2003 15:00 17.9 C 41 % 1018.9 hPa 0.0 l/m 13.4 km/h (3 Bft) W-NW 4.5 C 17.9 C
01.04.2003 16:00 18.4 C 38 % 1017.8 hPa 0.0 l/m 23.4 km/h (4 Bft) W-NW 3.8 C 18.4 C
01.04.2003 17:00 18.6 C 36 % 1016.6 hPa 0.0 l/m 26.2 km/h (4 Bft) W-NW 3.0 C 18.6 C
01.04.2003 18:00 17.1 C 39 % 1016.3 hPa 0.0 l/m 18.5 km/h (3 Bft) W-NW 3.1 C 17.1 C
01.04.2003 19:00 15.6 C 40 % 1016.3 hPa 0.0 l/m 25.6 km/h (4 Bft) NW 1.9 C 15.6 C
01.04.2003 20:00 14.1 C 42 % 1015.5 hPa 0.0 l/m 21.2 km/h (4 Bft) W-NW 1.3 C 14.1 C
01.04.2003 21:00 12.9 C 44 % 1015.2 hPa 0.0 l/m 9.1 km/h (2 Bft) W-NW 0.9 C 12.9 C
01.04.2003 22:00 13.3 C 37 % 1014.6 hPa 0.0 l/m 18.0 km/h (3 Bft) W-NW -1.2 C 13.3 C
01.04.2003 23:00 13.1 C 41 % 1013.8 hPa 0.0 l/m 15.9 km/h (3 Bft) W-NW 0.1 C 13.1 C
02.04.2003 00:00 13.9 C 45 % 1012.5 hPa 0.0 l/m 26.8 km/h (4 Bft) W-NW 2.0 C 13.9 C
02.04.2003 01:00 13.8 C 44 % 1010.7 hPa 0.0 l/m 23.5 km/h (4 Bft) W-NW 1.9 C 13.8 C
02.04.2003 02:00 12.4 C 55 % 1009.9 hPa 0.0 l/m 49.7 km/h (6 Bft) W-NW 3.3 C 12.4 C
02.04.2003 03:00 9.8 C 75 % 1009.0 hPa 0.0 l/m 42.3 km/h (6 Bft) W-NW 5.6 C 6.5 C
02.04.2003 04:00 7.9 C 89 % 1008.6 hPa 1.5 l/m 41.7 km/h (6 Bft) W-NW 6.1 C 3.2 C
02.04.2003 05:00 6.8 C 96 % 1008.0 hPa 2.1 l/m 40.1 km/h (6 Bft) W-NW 6.2 C 1.7 C
02.04.2003 06:00 5.9 C 98 % 1007.9 hPa 2.4 l/m 37.7 km/h (5 Bft) NW 5.7 C 0.7 C
02.04.2003 07:00 4.8 C 98 % 1008.2 hPa 1.2 l/m 25.9 km/h (4 Bft) W-NW 4.4 C 0.3 C
02.04.2003 08:00 4.8 C 96 % 1007.9 hPa 0.6 l/m 21.7 km/h (4 Bft) W-NW 4.3 C 0.8 C
02.04.2003 09:00 4.2 C 94 % 1008.3 hPa 0.3 l/m 22.2 km/h (4 Bft) W-NW 3.4 C 0.2 C
02.04.2003 10:00 4.3 C 85 % 1009.7 hPa 0.0 l/m 25.9 km/h (4 Bft) W-NW 1.9 C -0.1 C
02.04.2003 11:00 5.1 C 78 % 1010.2 hPa 0.0 l/m 11.7 km/h (2 Bft) W-NW 1.5 C 2.9 C
02.04.2003 12:00 5.7 C 71 % 1010.0 hPa 0.0 l/m 12.1 km/h (2 Bft) NW 0.8 C 3.4 C
02.04.2003 13:00 5.4 C 78 % 1010.0 hPa 0.0 l/m 9.3 km/h (2 Bft) W-NW 1.7 C 3.5 C
02.04.2003 14:00 7.3 C 59 % 1009.6 hPa 0.0 l/m 16.0 km/h (3 Bft) W-NW -0.2 C 4.7 C
02.04.2003 15:00 7.9 C 49 % 1009.0 hPa 0.0 l/m 27.7 km/h (4 Bft) NW -2.3 C 4.1 C
02.04.2003 16:00 8.6 C 43 % 1009.0 hPa 0.0 l/m 23.8 km/h (4 Bft) W-NW -3.4 C 5.3 C
02.04.2003 17:00 7.2 C 54 % 1009.1 hPa 0.0 l/m 11.8 km/h (2 Bft) NW -1.6 C 5.3 C
02.04.2003 18:00 6.7 C 57 % 1010.0 hPa 0.0 l/m 9.9 km/h (2 Bft) NW -1.1 C 5.1 C
02.04.2003 19:00 5.3 C 70 % 1010.7 hPa 0.0 l/m 6.8 km/h (2 Bft) W-NW 0.2 C 3.9 C
02.04.2003 20:00 4.4 C 80 % 1011.1 hPa 0.0 l/m 1.2 km/h (1 Bft) W-NW 1.4 C 4.2 C
02.04.2003 21:00 4.5 C 83 % 1011.8 hPa 0.0 l/m 0.6 km/h (0 Bft) NW 1.9 C 4.4 C
02.04.2003 22:00 3.1 C 92 % 1012.1 hPa 0.0 l/m 0.2 km/h (0 Bft) W-NW 1.9 C 3.1 C
02.04.2003 23:00 2.5 C 94 % 1011.9 hPa 0.0 l/m 1.2 km/h (1 Bft) O 1.7 C 2.3 C
03.04.2003 00:00 3.1 C 93 % 1012.1 hPa 0.0 l/m 0.4 km/h (0 Bft) O-SO 2.0 C 3.1 C
03.04.2003 01:00 3.1 C 93 % 1012.1 hPa 0.0 l/m 0.2 km/h (0 Bft) O-SO 2.0 C 3.1 C
03.04.2003 02:00 3.0 C 93 % 1012.1 hPa 0.0 l/m 0.0 km/h (0 Bft) N 2.0 C 3.0 C
03.04.2003 03:00 2.8 C 94 % 1012.1 hPa 0.0 l/m 0.2 km/h (0 Bft) O-SO 1.9 C 2.7 C
03.04.2003 04:00 2.4 C 98 % 1012.1 hPa 0.3 l/m 4.3 km/h (1 Bft) O-SO 2.1 C 1.4 C
03.04.2003 05:00 2.2 C 99 % 1012.9 hPa 0.0 l/m 0.6 km/h (0 Bft) O-SO 2.0 C 2.0 C
03.04.2003 06:00 2.3 C 100 % 1013.6 hPa 0.0 l/m 0.2 km/h (0 Bft) O-SO 2.3 C 2.3 C
03.04.2003 07:00 2.3 C 99 % 1014.7 hPa 0.0 l/m 2.1 km/h (1 Bft) O-SO 2.2 C 2.2 C
03.04.2003 08:00 3.2 C 88 % 1015.5 hPa 0.0 l/m 0.4 km/h (0 Bft) O-NO 1.4 C 3.2 C
03.04.2003 09:00 4.2 C 76 % 1016.3 hPa 0.0 l/m 1.6 km/h (1 Bft) NO 0.4 C 3.9 C
03.04.2003 10:00 5.1 C 64 % 1017.2 hPa 0.0 l/m 5.0 km/h (1 Bft) NO -1.1 C 4.1 C
03.04.2003 11:00 6.0 C 57 % 1017.5 hPa 0.0 l/m 5.3 km/h (1 Bft) NO -1.8 C 5.1 C
03.04.2003 12:00 7.2 C 52 % 1018.3 hPa 0.0 l/m 7.5 km/h (2 Bft) O -2.0 C 5.9 C
03.04.2003 13:00 7.8 C 45 % 1018.3 hPa 0.0 l/m 6.0 km/h (2 Bft) NO -3.5 C 7.0 C
03.04.2003 14:00 7.1 C 48 % 1019.3 hPa 0.0 l/m 4.4 km/h (1 Bft) N-NO -3.2 C 6.4 C
03.04.2003 15:00 6.7 C 50 % 1019.4 hPa 0.0 l/m 3.3 km/h (1 Bft) NO -3.0 C 6.2 C
03.04.2003 16:00 7.1 C 48 % 1019.4 hPa 0.0 l/m 2.4 km/h (1 Bft) N-NO -3.1 C 6.7 C
03.04.2003 17:00 7.0 C 47 % 1020.2 hPa 0.0 l/m 7.5 km/h (2 Bft) NO -3.6 C 5.7 C
03.04.2003 18:00 6.2 C 48 % 1021.1 hPa 0.0 l/m 7.5 km/h (2 Bft) NO -3.9 C 5.0 C
03.04.2003 19:00 5.3 C 56 % 1022.2 hPa 0.0 l/m 4.8 km/h (1 Bft) O -2.9 C 4.4 C
03.04.2003 20:00 4.0 C 64 % 1023.3 hPa 0.0 l/m 1.7 km/h (1 Bft) N-NO -2.2 C 3.7 C
03.04.2003 21:00 3.7 C 63 % 1024.1 hPa 0.0 l/m 0.6 km/h (0 Bft) O-NO -2.7 C 3.6 C
03.04.2003 22:00 2.9 C 70 % 1024.6 hPa 0.0 l/m 0.9 km/h (0 Bft) O-SO -2.1 C 2.7 C
03.04.2003 23:00 2.8 C 69 % 1025.6 hPa 0.0 l/m 2.5 km/h (1 Bft) O-SO -2.4 C 2.3 C
04.04.2003 00:00 1.7 C 73 % 1025.6 hPa 0.0 l/m 2.6 km/h (1 Bft) O -2.6 C 1.1 C
04.04.2003 01:00 1.0 C 79 % 1026.6 hPa 0.0 l/m 1.7 km/h (1 Bft) N-NO -2.2 C 0.8 C
04.04.2003 02:00 -0.2 C 83 % 1026.7 hPa 0.0 l/m 1.2 km/h (1 Bft) O-SO -2.7 C -0.5 C
04.04.2003 03:00 -0.0 C 85 % 1026.7 hPa 0.0 l/m 1.4 km/h (1 Bft) O -2.2 C -0.1 C
04.04.2003 04:00 -1.2 C 92 % 1026.7 hPa 0.0 l/m 0.0 km/h (0 Bft) N -2.4 C -1.2 C
04.04.2003 05:00 -2.4 C 97 % 1026.7 hPa 0.0 l/m 0.4 km/h (0 Bft) O -2.9 C -2.4 C
04.04.2003 06:00 -2.3 C 100 % 1026.7 hPa 0.0 l/m 0.0 km/h (0 Bft) N -2.3 C -2.3 C
04.04.2003 07:00 -1.8 C 99 % 1026.7 hPa 0.0 l/m 0.0 km/h (0 Bft) N -1.9 C -1.8 C
04.04.2003 08:00 -0.3 C 94 % 1027.6 hPa 0.0 l/m 0.0 km/h (0 Bft) N -1.1 C -0.3 C
04.04.2003 09:00 2.4 C 80 % 1027.7 hPa 0.0 l/m 1.0 km/h (0 Bft) O-SO -0.8 C 2.2 C
04.04.2003 10:00 4.8 C 64 % 1027.7 hPa 0.0 l/m 7.6 km/h (2 Bft) O -1.4 C 3.2 C
04.04.2003 11:00 5.5 C 59 % 1027.7 hPa 0.0 l/m 6.7 km/h (2 Bft) NO -1.8 C 4.2 C
04.04.2003 12:00 6.5 C 55 % 1027.7 hPa 0.0 l/m 7.3 km/h (2 Bft) O-NO -2.0 C 5.2 C
04.04.2003 13:00 7.5 C 52 % 1027.7 hPa 0.0 l/m 10.7 km/h (2 Bft) O-SO -1.8 C 5.6 C
04.04.2003 14:00 8.4 C 46 % 1027.7 hPa 0.0 l/m 5.3 km/h (1 Bft) O-SO -2.5 C 7.6 C
04.04.2003 15:00 8.5 C 43 % 1027.7 hPa 0.0 l/m 7.6 km/h (2 Bft) O-SO -3.4 C 7.4 C
04.04.2003 16:00 9.2 C 43 % 1026.8 hPa 0.0 l/m 4.1 km/h (1 Bft) O -2.7 C 8.8 C
04.04.2003 17:00 9.6 C 40 % 1026.7 hPa 0.0 l/m 2.5 km/h (1 Bft) NO -3.4 C 9.4 C
04.04.2003 18:00 8.5 C 41 % 1026.7 hPa 0.0 l/m 2.7 km/h (1 Bft) O-SO -3.9 C 8.2 C
04.04.2003 19:00 7.8 C 46 % 1026.7 hPa 0.0 l/m 1.5 km/h (1 Bft) NO -3.0 C 7.7 C
04.04.2003 20:00 5.9 C 54 % 1027.7 hPa 0.0 l/m 0.9 km/h (0 Bft) NO -2.8 C 5.8 C
04.04.2003 21:00 5.1 C 57 % 1027.7 hPa 0.0 l/m 1.8 km/h (1 Bft) NO -2.8 C 4.9 C
04.04.2003 22:00 2.8 C 67 % 1027.7 hPa 0.0 l/m 1.1 km/h (0 Bft) O-SO -2.8 C 2.6 C
04.04.2003 23:00 1.8 C 73 % 1027.7 hPa 0.0 l/m 0.2 km/h (0 Bft) O -2.6 C 1.8 C
05.04.2003 00:00 0.4 C 82 % 1027.7 hPa 0.0 l/m 0.4 km/h (0 Bft) O -2.2 C 0.3 C
05.04.2003 01:00 -0.5 C 89 % 1027.7 hPa 0.0 l/m 0.0 km/h (0 Bft) O -2.1 C -0.5 C
05.04.2003 02:00 -1.2 C 90 % 1027.5 hPa 0.0 l/m 1.1 km/h (1 Bft) O -2.5 C -1.2 C
05.04.2003 03:00 -1.9 C 94 % 1026.7 hPa 0.0 l/m 1.3 km/h (1 Bft) O -2.7 C -2.1 C
05.04.2003 04:00 -2.4 C 96 % 1026.7 hPa 0.0 l/m 0.5 km/h (0 Bft) O -3.0 C -2.5 C
05.04.2003 05:00 -2.9 C 98 % 1026.7 hPa 0.0 l/m 1.8 km/h (1 Bft) O -3.1 C -3.2 C
05.04.2003 06:00 -3.2 C 99 % 1026.7 hPa 0.0 l/m 0.0 km/h (0 Bft) N -3.4 C -3.2 C
05.04.2003 07:00 -3.0 C 98 % 1026.6 hPa 0.0 l/m 1.8 km/h (1 Bft) O -3.3 C -3.4 C
05.04.2003 08:00 -1.0 C 91 % 1026.7 hPa 0.0 l/m 0.8 km/h (0 Bft) O-SO -2.3 C -1.2 C
05.04.2003 09:00 1.1 C 79 % 1026.7 hPa 0.0 l/m 0.0 km/h (0 Bft) N -2.2 C 1.1 C
05.04.2003 10:00 4.0 C 64 % 1026.4 hPa 0.0 l/m 0.1 km/h (0 Bft) N -2.3 C 4.0 C
05.04.2003 11:00 7.5 C 50 % 1025.6 hPa 0.0 l/m 2.1 km/h (1 Bft) O-SO -2.3 C 7.3 C
05.04.2003 12:00 9.5 C 48 % 1025.6 hPa 0.0 l/m 5.6 km/h (1 Bft) NW -1.1 C 8.8 C
05.04.2003 13:00 11.3 C 44 % 1024.6 hPa 0.0 l/m 4.0 km/h (1 Bft) W-NW -0.5 C 11.1 C
05.04.2003 14:00 12.7 C 41 % 1024.6 hPa 0.0 l/m 7.4 km/h (2 Bft) W-NW -0.3 C 12.7 C
05.04.2003 15:00 13.4 C 38 % 1023.5 hPa 0.0 l/m 10.7 km/h (2 Bft) NW -0.5 C 13.4 C
05.04.2003 16:00 13.8 C 38 % 1023.5 hPa 0.0 l/m 15.1 km/h (3 Bft) NW -0.2 C 13.8 C
05.04.2003 17:00 13.8 C 38 % 1022.9 hPa 0.0 l/m 16.7 km/h (3 Bft) W-NW -0.4 C 13.8 C
05.04.2003 18:00 13.0 C 40 % 1022.5 hPa 0.0 l/m 6.9 km/h (2 Bft) N-NW -0.3 C 13.0 C
05.04.2003 19:00 12.1 C 47 % 1022.5 hPa 0.0 l/m 12.0 km/h (2 Bft) W-NW 1.1 C 12.1 C
05.04.2003 20:00 11.1 C 54 % 1022.9 hPa 0.0 l/m 8.0 km/h (2 Bft) W-NW 2.3 C 11.1 C
05.04.2003 21:00 10.7 C 56 % 1023.5 hPa 0.0 l/m 7.4 km/h (2 Bft) NW 2.2 C 10.7 C
05.04.2003 22:00 10.5 C 56 % 1023.5 hPa 0.0 l/m 8.6 km/h (2 Bft) NW 2.2 C 10.5 C
05.04.2003 23:00 10.4 C 53 % 1023.5 hPa 0.0 l/m 3.8 km/h (1 Bft) NW 1.2 C 10.4 C
06.04.2003 00:00 9.7 C 55 % 1023.5 hPa 0.0 l/m 0.4 km/h (0 Bft) NO 1.2 C 9.7 C
06.04.2003 01:00 8.6 C 58 % 1023.5 hPa 0.0 l/m 2.8 km/h (1 Bft) O-SO 0.7 C 8.3 C
06.04.2003 02:00 7.8 C 62 % 1022.9 hPa 0.0 l/m 3.2 km/h (1 Bft) O-SO 0.9 C 7.4 C
06.04.2003 03:00 7.6 C 63 % 1022.5 hPa 0.0 l/m 0.1 km/h (0 Bft) O-NO 0.9 C 7.6 C
06.04.2003 04:00 6.8 C 60 % 1022.5 hPa 0.0 l/m 3.6 km/h (1 Bft) NO -0.5 C 6.3 C
06.04.2003 05:00 5.5 C 63 % 1022.5 hPa 0.0 l/m 4.5 km/h (1 Bft) O -1.0 C 4.7 C
06.04.2003 06:00 4.9 C 63 % 1022.5 hPa 0.0 l/m 8.0 km/h (2 Bft) O-SO -1.4 C 3.2 C
06.04.2003 07:00 4.8 C 61 % 1022.5 hPa 0.0 l/m 1.6 km/h (1 Bft) O -2.1 C 4.6 C
06.04.2003 08:00 4.8 C 61 % 1022.5 hPa 0.0 l/m 2.1 km/h (1 Bft) O-SO -2.1 C 4.6 C
06.04.2003 09:00 5.0 C 60 % 1022.5 hPa 0.0 l/m 4.2 km/h (1 Bft) O -2.1 C 4.2 C
06.04.2003 10:00 4.9 C 60 % 1023.0 hPa 0.0 l/m 5.7 km/h (1 Bft) O-SO -2.3 C 3.7 C
06.04.2003 11:00 5.0 C 54 % 1023.5 hPa 0.0 l/m 5.6 km/h (1 Bft) NO -3.5 C 3.9 C
Min-Datum _ 05.04.03 01.04.03 02.04.03 - 31.03.03 - 04.04.03 05.04.03
_ Min-Zeit 06:52 17:48 03:58 - 00:02 - 17:54 05:25
Minimum _ -3.7 C 27 % 1007.9 hPa - 0.0 km/h (0 Bft) - -5.4 C -5.9 C
Max-Datum _ 01.04.03 31.03.03 04.04.03 31.03.03 02.04.03 - 31.03.03 01.04.03
_ Max-Zeit 17:06 01:29 09:00 00:00 04:22 - 01:29 17:06
Maximum _ 19.1 C 100 % 1027.7 hPa 3.6 l/m 74.5 km/h
W-NW (8 Bft)
- 10.1 C 19.1 C
Durchschnitt _ 6.7 C 70 % 1020.5 hPa #15.3 l/m 7.0 km/h (2 Bft) W-NW 1.0 C 6.2 C

Durchschnitt Minimum Temp.6.0 C
Durchschnitt Maximum Temp.7.6 C
© Kaiko 2003